Time;durP1;ratioP1;P1;durP2;ratioP2;P2;SDS_P1;SDS_P2;PMS_P1;PMS_P2;Temp;Humidity;BMP_temperature;BMP_pressure;BME280_temperature;BME280_humidity;BME280_pressure;Samples;Min_cycle;Max_cycle;Signal;HPM_P1;HPM_P2
2024/01/27 00:00:53;;;;;;;17.10;13.15;;;;;;;1.19;65.04;95201.16;5143573;27;20039;-70
2024/01/27 00:03:19;;;;;;;6.50;4.30;;;;;;;1.18;64.90;95193.53;5131723;27;20420;-70
2024/01/27 00:05:44;;;;;;;7.95;5.00;;;;;;;1.27;64.90;95188.88;5131386;27;20034;-70
2024/01/27 00:08:09;;;;;;;9.32;3.72;;;;;;;1.26;65.38;95176.16;5115342;27;20035;-70
2024/01/27 00:10:35;;;;;;;8.02;3.22;;;;;;;1.15;65.39;95180.88;5142709;27;20088;-70
2024/01/27 00:13:00;;;;;;;8.75;3.63;;;;;;;1.17;65.41;95174.81;5131153;27;20473;-70
2024/01/27 00:15:26;;;;;;;9.95;3.67;;;;;;;1.06;66.02;95180.34;5111353;27;20089;-70
2024/01/27 00:17:51;;;;;;;10.73;3.80;;;;;;;1.07;65.99;95173.50;5129248;27;20038;-70
2024/01/27 00:20:17;;;;;;;8.60;3.30;;;;;;;1.06;65.96;95175.22;5112139;27;20043;-70
2024/01/27 00:22:42;;;;;;;5.85;3.58;;;;;;;1.01;66.60;95156.66;5111504;28;20041;-70
2024/01/27 00:25:07;;;;;;;8.27;3.80;;;;;;;1.21;65.81;95148.19;5122337;27;20038;-70
2024/01/27 00:27:33;;;;;;;6.72;2.75;;;;;;;1.13;64.94;95141.72;5112091;28;20046;-70
2024/01/27 00:29:58;;;;;;;8.35;3.08;;;;;;;1.22;65.74;95152.38;5121386;27;20034;-70
2024/01/27 00:32:24;;;;;;;7.03;2.95;;;;;;;1.08;65.81;95154.69;5128825;27;20031;-70
2024/01/27 00:34:49;;;;;;;7.53;3.55;;;;;;;1.15;65.72;95168.09;5107157;27;20492;-69
2024/01/27 00:37:15;;;;;;;8.27;2.92;;;;;;;1.14;66.32;95172.34;5136162;27;20031;-70
2024/01/27 00:39:40;;;;;;;7.28;2.60;;;;;;;1.11;67.34;95157.97;5105965;27;20490;-70
2024/01/27 00:42:06;;;;;;;3.53;2.30;;;;;;;0.87;67.00;95169.19;5112629;27;20038;-70
2024/01/27 00:44:31;;;;;;;6.55;2.90;;;;;;;0.73;67.98;95163.78;5121457;27;20026;-70
2024/01/27 00:46:57;;;;;;;9.43;4.22;;;;;;;0.92;66.58;95153.63;5144587;27;20034;-70
2024/01/27 00:49:22;;;;;;;6.43;4.53;;;;;;;0.76;66.91;95155.97;5112453;27;20107;-70
2024/01/27 00:51:47;;;;;;;7.82;4.53;;;;;;;0.54;67.82;95155.97;5130850;27;20454;-70
2024/01/27 00:54:13;;;;;;;6.78;3.10;;;;;;;0.37;68.32;95170.22;5100084;27;20019;-70
2024/01/27 00:56:38;;;;;;;8.77;3.20;;;;;;;0.55;68.51;95172.97;5147918;27;20031;-70
2024/01/27 00:59:03;;;;;;;7.45;3.20;;;;;;;0.14;69.15;95148.06;5130154;27;20027;-70
2024/01/27 01:01:29;;;;;;;8.57;3.22;;;;;;;-0.09;68.91;95123.34;5130605;27;20035;-70
2024/01/27 01:03:54;;;;;;;8.45;3.83;;;;;;;0.10;69.34;95163.56;5132722;27;20051;-69
2024/01/27 01:06:20;;;;;;;7.85;3.35;;;;;;;-0.05;70.06;95162.41;5132391;27;20054;-70
2024/01/27 01:08:45;;;;;;;8.15;2.60;;;;;;;0.05;68.93;95147.56;5131157;27;20480;-70
2024/01/27 01:11:11;;;;;;;9.25;3.17;;;;;;;-0.21;69.57;95141.69;5129264;27;20023;-69
2024/01/27 01:13:36;;;;;;;13.18;6.97;;;;;;;0.04;68.41;95135.69;5114792;27;20416;-70
2024/01/27 01:16:03;;;;;;;16.23;7.85;;;;;;;-0.07;67.67;95144.56;5131617;27;20039;-70
2024/01/27 01:18:28;;;;;;;16.90;7.18;;;;;;;-0.01;67.33;95152.00;5110434;28;20066;-70
2024/01/27 01:20:54;;;;;;;16.55;6.63;;;;;;;0.27;68.47;95148.44;5127440;27;20043;-70
2024/01/27 01:23:19;;;;;;;8.63;4.20;;;;;;;0.11;68.66;95152.44;5113054;27;20485;-70
2024/01/27 01:25:44;;;;;;;10.82;4.88;;;;;;;-0.11;68.74;95158.34;5143438;27;20465;-70
2024/01/27 01:28:10;;;;;;;15.15;6.07;;;;;;;-0.01;68.12;95152.00;5109311;28;20080;-70
2024/01/27 01:30:36;;;;;;;21.88;8.93;;;;;;;0.02;67.56;95155.34;5124798;27;20086;-70
2024/01/27 01:33:01;;;;;;;13.68;5.43;;;;;;;0.02;67.77;95150.22;5113132;27;20114;-70
2024/01/27 01:35:27;;;;;;;18.55;8.05;;;;;;;0.12;67.29;95138.81;5133691;27;20031;-70
2024/01/27 01:37:52;;;;;;;13.65;5.78;;;;;;;0.41;67.62;95143.63;5113948;27;20027;-70
2024/01/27 01:40:17;;;;;;;9.15;3.95;;;;;;;0.40;67.52;95131.75;5093760;27;21389;-70
2024/01/27 01:42:43;;;;;;;10.15;4.22;;;;;;;0.17;68.29;95126.69;5114281;27;20114;-70
2024/01/27 01:45:10;;;;;;;15.98;6.32;;;;;;;-0.03;68.96;95128.25;5108303;28;20038;-70
2024/01/27 01:47:35;;;;;;;7.25;3.95;;;;;;;0.18;68.78;95143.69;5105388;27;20031;-70
2024/01/27 01:50:01;;;;;;;10.27;4.85;;;;;;;-0.06;69.73;95138.56;5129622;27;20104;-70
2024/01/27 01:52:26;;;;;;;13.65;6.15;;;;;;;-0.12;69.56;95143.88;5111180;27;20031;-70
2024/01/27 01:54:51;;;;;;;9.65;4.85;;;;;;;0.08;69.12;95140.59;5131869;27;20030;-70
2024/01/27 01:57:17;;;;;;;9.95;5.13;;;;;;;-0.10;69.35;95139.56;5131071;27;20030;-70
2024/01/27 01:59:42;;;;;;;7.47;4.60;;;;;;;-0.10;69.51;95139.56;5110473;28;20031;-70
2024/01/27 02:02:08;;;;;;;9.45;4.65;;;;;;;-0.12;69.48;95115.81;5106991;27;20069;-69
2024/01/27 02:04:43;;;;;;;9.35;4.57;;;;;;;0.00;69.63;95134.97;5110149;28;20047;-70
2024/01/27 02:07:09;;;;;;;5.18;3.05;;;;;;;0.25;68.96;95124.66;5082301;28;20481;-69
2024/01/27 02:09:34;;;;;;;5.97;3.50;;;;;;;0.03;68.98;95128.91;5106354;27;20015;-70
2024/01/27 02:12:00;;;;;;;9.82;3.42;;;;;;;0.04;69.98;95131.41;5109037;27;20505;-69
2024/01/27 02:14:27;;;;;;;8.32;4.57;;;;;;;0.32;69.22;95130.38;5128528;27;20400;-70
2024/01/27 02:16:53;;;;;;;11.38;5.07;;;;;;;0.14;69.28;95098.66;5110113;28;20031;-70
2024/01/27 02:19:18;;;;;;;8.30;4.45;;;;;;;0.22;68.69;95110.28;5131007;27;20485;-70
2024/01/27 02:21:44;;;;;;;7.93;3.88;;;;;;;0.28;69.17;95103.25;5110650;27;20027;-70
2024/01/27 02:24:10;;;;;;;5.90;2.78;;;;;;;0.43;67.06;95098.41;5131559;27;20026;-70
2024/01/27 02:26:35;;;;;;;5.57;2.33;;;;;;;0.43;65.85;95088.19;5132524;27;20107;-70
2024/01/27 02:29:01;;;;;;;4.80;2.47;;;;;;;0.58;63.43;95091.03;5111652;27;20421;-70
2024/01/27 02:31:26;;;;;;;6.95;3.00;;;;;;;0.53;64.61;95103.16;5126486;27;20038;-70
2024/01/27 02:33:52;;;;;;;17.00;10.68;;;;;;;0.43;65.81;95095.84;5130210;27;20019;-70
2024/01/27 02:36:17;;;;;;;26.35;14.00;;;;;;;0.67;66.82;95106.03;5129208;27;20050;-70
2024/01/27 02:38:42;;;;;;;26.75;15.15;;;;;;;0.69;66.75;95096.53;5125831;27;20032;-70
2024/01/27 02:41:10;;;;;;;33.03;16.33;;;;;;;0.71;67.02;95094.78;5124795;27;20512;-70
2024/01/27 02:43:35;;;;;;;31.45;13.80;;;;;;;0.53;67.96;95100.59;5113073;27;20031;-69
2024/01/27 02:46:01;;;;;;;32.38;15.23;;;;;;;0.65;67.63;95110.34;5127253;27;20031;-70
2024/01/27 02:48:27;;;;;;;27.17;13.82;;;;;;;0.84;67.25;95113.84;5110508;27;20023;-69
2024/01/27 02:50:52;;;;;;;28.02;15.18;;;;;;;0.84;67.14;95108.75;5138381;27;20433;-70
2024/01/27 02:53:17;;;;;;;27.00;13.43;;;;;;;0.49;68.27;95087.09;5130106;27;20031;-70
2024/01/27 02:55:43;;;;;;;24.30;12.38;;;;;;;0.78;68.45;95101.31;5147817;27;20027;-70
2024/01/27 02:58:08;;;;;;;23.42;13.07;;;;;;;0.95;67.82;95094.66;5127403;27;20027;-70
2024/01/27 03:00:34;;;;;;;27.20;12.75;;;;;;;0.61;67.97;95081.53;5128340;27;20035;-70
2024/01/27 03:02:59;;;;;;;22.45;12.00;;;;;;;0.95;67.11;95092.09;5109190;28;20042;-70
2024/01/27 03:05:24;;;;;;;18.38;9.48;;;;;;;1.08;66.31;95100.94;5115317;28;20104;-70
2024/01/27 03:07:50;;;;;;;20.58;9.32;;;;;;;0.81;66.98;95116.53;5121507;28;20072;-70
2024/01/27 03:10:15;;;;;;;17.58;9.32;;;;;;;1.05;67.01;95095.97;5127130;27;20046;-70
2024/01/27 03:12:41;;;;;;;16.77;9.32;;;;;;;1.03;66.89;95115.66;5129623;27;20019;-70
2024/01/27 03:15:06;;;;;;;17.30;9.88;;;;;;;1.03;66.89;95118.22;5126838;28;20031;-70
2024/01/27 03:17:32;;;;;;;16.65;9.50;;;;;;;0.96;66.84;95107.41;5131363;27;20027;-69
2024/01/27 03:19:57;;;;;;;17.50;8.48;;;;;;;0.83;68.27;95094.25;5117046;28;20035;-70
2024/01/27 03:22:22;;;;;;;15.88;9.02;;;;;;;0.82;67.52;95090.06;5111155;27;20030;-69
2024/01/27 03:24:48;;;;;;;16.33;9.07;;;;;;;0.81;69.16;95108.88;5133510;27;20091;-69
2024/01/27 03:27:13;;;;;;;16.23;8.80;;;;;;;0.93;68.55;95102.41;5134059;27;20027;-70
2024/01/27 03:29:39;;;;;;;13.35;8.63;;;;;;;0.64;69.12;95106.13;5106697;27;20049;-70
2024/01/27 03:32:05;;;;;;;15.30;8.45;;;;;;;0.62;69.42;95115.59;5113892;27;20027;-70
2024/01/27 03:34:30;;;;;;;14.68;8.43;;;;;;;0.91;68.90;95100.81;5108090;27;20023;-70
2024/01/27 03:36:56;;;;;;;14.77;7.85;;;;;;;0.75;69.42;95114.19;5131419;27;20030;-70
2024/01/27 03:39:21;;;;;;;15.57;7.20;;;;;;;0.83;69.06;95119.84;5111097;28;20019;-70
2024/01/27 03:41:46;;;;;;;13.77;6.70;;;;;;;0.81;69.24;95131.88;5124137;27;20046;-69
2024/01/27 03:44:12;;;;;;;12.40;6.40;;;;;;;0.77;69.12;95107.31;5132129;27;20454;-70
2024/01/27 03:46:39;;;;;;;10.32;5.78;;;;;;;0.73;69.84;95103.22;5133813;27;20035;-70
2024/01/27 03:49:04;;;;;;;7.15;4.15;;;;;;;0.80;69.40;95102.06;5113512;27;20405;-69
2024/01/27 03:51:30;;;;;;;8.27;4.60;;;;;;;0.87;68.88;95098.38;5129398;27;20118;-70
2024/01/27 03:53:55;;;;;;;7.00;4.13;;;;;;;0.84;69.77;95095.94;5112673;27;20084;-70
2024/01/27 03:56:20;;;;;;;7.28;3.75;;;;;;;1.01;69.13;95094.44;5132887;27;20031;-70
2024/01/27 03:58:46;;;;;;;9.77;6.20;;;;;;;0.85;68.73;95083.97;5134542;27;20031;-70
2024/01/27 04:01:11;;;;;;;17.77;13.68;;;;;;;1.00;67.99;95083.34;5111409;27;20501;-69
2024/01/27 04:03:37;;;;;;;11.10;6.18;;;;;;;0.93;67.70;95091.34;5133388;27;20047;-70
2024/01/27 04:06:02;;;;;;;33.13;25.35;;;;;;;0.94;67.99;95067.44;5137845;27;20039;-70
2024/01/27 04:08:32;;;;;;;18.30;12.57;;;;;;;0.93;69.15;95068.34;5114249;27;20110;-69
2024/01/27 04:10:57;;;;;;;10.15;8.10;;;;;;;1.17;69.74;95079.25;5130803;27;20039;-70
2024/01/27 04:13:23;;;;;;;17.98;11.60;;;;;;;1.04;70.21;95099.41;5132679;27;20020;-70
2024/01/27 04:15:51;;;;;;;14.93;8.07;;;;;;;1.02;69.83;95062.81;5115645;27;20149;-70
2024/01/27 04:18:16;;;;;;;13.75;5.75;;;;;;;1.24;70.07;95099.41;5130487;27;20034;-70
2024/01/27 04:20:41;;;;;;;10.63;5.25;;;;;;;1.19;70.74;95067.25;5105119;27;20243;-69
2024/01/27 04:23:07;;;;;;;9.85;3.55;;;;;;;1.14;72.94;95089.63;5114579;27;20028;-70
2024/01/27 04:25:32;;;;;;;10.43;3.20;;;;;;;1.05;73.88;95084.00;5130245;27;20035;-70
2024/01/27 04:27:58;;;;;;;6.68;3.03;;;;;;;1.29;73.40;95066.78;5138779;27;20053;-70
2024/01/27 04:30:23;;;;;;;8.95;2.83;;;;;;;1.29;73.61;95079.59;5104277;27;20409;-70
2024/01/27 04:32:49;;;;;;;4.47;2.50;;;;;;;1.45;72.56;95084.91;5134184;27;20023;-70
2024/01/27 04:35:14;;;;;;;5.30;2.28;;;;;;;1.53;72.32;95081.97;5130675;27;20031;-69
2024/01/27 04:37:39;;;;;;;5.10;2.80;;;;;;;1.64;72.71;95079.78;5131175;27;20038;-70
2024/01/27 04:40:05;;;;;;;5.93;2.38;;;;;;;1.56;72.20;95076.72;5110122;27;20019;-70
2024/01/27 04:42:33;;;;;;;5.47;2.20;;;;;;;1.94;72.13;95081.91;5130845;27;20107;-70
2024/01/27 04:44:59;;;;;;;7.32;2.85;;;;;;;2.01;71.78;95080.75;5114793;27;20032;-69
2024/01/27 04:47:24;;;;;;;4.78;2.70;;;;;;;2.01;71.53;95083.31;5132121;27;20080;-70
2024/01/27 04:49:50;;;;;;;5.68;3.15;;;;;;;2.00;71.56;95085.00;5131307;27;20400;-70
2024/01/27 04:52:16;;;;;;;4.38;2.50;;;;;;;1.73;71.65;95079.41;5131711;27;20023;-70
2024/01/27 04:54:41;;;;;;;4.10;2.10;;;;;;;1.91;71.52;95069.22;5132885;27;20036;-70
2024/01/27 04:57:06;;;;;;;5.43;2.55;;;;;;;1.60;72.63;95070.59;5114473;27;20034;-70
2024/01/27 04:59:32;;;;;;;6.45;4.10;;;;;;;1.93;72.54;95075.94;5102732;27;20031;-70
2024/01/27 05:01:57;;;;;;;14.23;7.07;;;;;;;1.75;71.44;95080.16;5110923;28;20459;-69
2024/01/27 05:04:26;;;;;;;20.73;10.50;;;;;;;1.49;72.50;95096.66;5112726;28;20047;-70
2024/01/27 05:06:52;;;;;;;34.05;16.92;;;;;;;1.63;71.67;95083.25;5095580;28;20024;-70
2024/01/27 05:09:17;;;;;;;9.95;6.80;;;;;;;1.67;71.96;95094.19;5107956;27;20018;-70
2024/01/27 05:11:45;;;;;;;12.27;8.25;;;;;;;1.37;73.84;95101.47;5112193;28;20028;-70
2024/01/27 05:14:10;;;;;;;24.45;13.23;;;;;;;1.53;73.75;95107.59;5112968;28;20590;-70
2024/01/27 05:16:36;;;;;;;15.43;9.25;;;;;;;1.85;73.51;95113.06;5112647;27;20045;-70
2024/01/27 05:19:01;;;;;;;14.98;10.05;;;;;;;1.80;72.30;95092.75;5124146;27;20609;-70
2024/01/27 05:21:27;;;;;;;13.05;8.13;;;;;;;1.61;72.76;95108.09;5111758;28;20032;-69
2024/01/27 05:23:52;;;;;;;14.48;9.07;;;;;;;1.81;73.70;95114.91;5111667;28;20035;-70
2024/01/27 05:26:18;;;;;;;17.27;10.85;;;;;;;1.49;74.26;95108.63;5101455;27;20027;-69
2024/01/27 05:28:43;;;;;;;14.63;8.85;;;;;;;1.61;74.95;95097.84;5115084;27;20401;-70
2024/01/27 05:31:08;;;;;;;13.65;8.85;;;;;;;1.69;74.53;95107.78;5132091;27;20038;-70
2024/01/27 05:33:38;;;;;;;9.88;6.38;;;;;;;1.56;75.77;95103.19;5133500;27;20020;-70
2024/01/27 05:36:04;;;;;;;11.70;8.07;;;;;;;1.61;76.06;95112.38;5117599;27;20176;-70
2024/01/27 05:38:31;;;;;;;11.07;7.82;;;;;;;1.65;76.41;95104.53;5111266;28;20489;-69
2024/01/27 05:40:57;;;;;;;10.15;6.82;;;;;;;1.88;76.26;95093.25;5094764;28;20153;-70
2024/01/27 05:43:22;;;;;;;10.10;6.15;;;;;;;1.75;76.86;95105.75;5094343;27;20028;-70
2024/01/27 05:45:48;;;;;;;12.48;6.68;;;;;;;1.88;77.17;95107.81;5126022;27;20081;-70
2024/01/27 05:48:23;;;;;;;13.93;7.38;;;;;;;1.53;77.78;95100.75;5096604;27;20250;-70
2024/01/27 05:50:58;;;;;;;21.02;12.48;;;;;;;1.53;78.75;95122.94;5122280;27;20035;-70
2024/01/27 05:53:23;;;;;;;24.95;14.13;;;;;;;1.17;78.99;95092.91;5111628;27;20504;-70
2024/01/27 05:55:49;;;;;;;69.03;44.67;;;;;;;0.93;80.39;95104.97;5122431;27;20138;-70
2024/01/27 05:58:15;;;;;;;39.25;24.50;;;;;;;1.24;79.75;95101.97;5120105;27;20027;-70
2024/01/27 06:00:43;;;;;;;35.72;22.98;;;;;;;1.25;79.99;95123.28;5116527;27;20058;-70
2024/01/27 06:03:09;;;;;;;29.27;17.35;;;;;;;1.37;79.90;95106.59;5110855;27;20416;-70
2024/01/27 06:05:34;;;;;;;28.33;17.10;;;;;;;1.26;81.31;95130.91;5128192;27;20035;-70
2024/01/27 06:08:00;;;;;;;27.65;15.00;;;;;;;1.26;80.64;95105.31;5128521;27;20030;-70
2024/01/27 06:10:25;;;;;;;32.28;14.82;;;;;;;1.18;80.68;95127.84;5113556;27;20042;-70
2024/01/27 06:12:50;;;;;;;22.75;12.82;;;;;;;1.27;80.90;95113.81;5128836;27;20027;-69
2024/01/27 06:15:16;;;;;;;26.50;14.07;;;;;;;1.33;80.95;95123.78;5113658;27;20035;-69
2024/01/27 06:17:41;;;;;;;43.38;25.00;;;;;;;1.51;81.12;95140.13;5114895;27;20492;-70
2024/01/27 06:20:07;;;;;;;41.90;19.52;;;;;;;1.69;80.20;95135.94;5128667;27;20034;-69
2024/01/27 06:22:33;;;;;;;32.33;18.27;;;;;;;1.43;80.50;95147.31;5131496;27;20446;-70
2024/01/27 06:24:59;;;;;;;42.47;22.88;;;;;;;1.33;81.36;95137.41;5130679;27;20028;-70
2024/01/27 06:27:24;;;;;;;20.60;12.13;;;;;;;1.14;82.31;95144.19;5129030;27;20076;-70
2024/01/27 06:29:49;;;;;;;28.67;14.85;;;;;;;1.30;82.67;95152.09;5105375;27;20087;-71
2024/01/27 06:32:15;;;;;;;24.40;13.88;;;;;;;1.21;82.67;95114.09;5113896;27;20054;-74
2024/01/27 06:34:41;;;;;;;16.13;7.60;;;;;;;1.40;83.42;95158.50;5132123;27;20039;-70
2024/01/27 06:37:06;;;;;;;12.00;6.65;;;;;;;1.37;84.34;95145.00;5113997;27;20030;-69
2024/01/27 06:39:32;;;;;;;9.30;5.65;;;;;;;1.44;84.61;95154.06;5129980;27;20425;-69
2024/01/27 06:41:57;;;;;;;10.45;5.30;;;;;;;1.48;84.76;95171.00;5121844;27;20039;-69
2024/01/27 06:44:22;;;;;;;43.63;23.85;;;;;;;1.62;84.12;95157.63;5129307;27;20019;-70
2024/01/27 06:46:50;;;;;;;20.65;11.80;;;;;;;1.42;84.05;95172.06;5121497;27;20034;-69
2024/01/27 06:49:16;;;;;;;16.83;9.85;;;;;;;1.44;84.05;95166.88;5127924;27;20481;-69
2024/01/27 06:51:41;;;;;;;13.43;7.53;;;;;;;1.69;84.31;95190.56;5131705;27;20511;-69
2024/01/27 06:54:07;;;;;;;19.50;10.20;;;;;;;1.70;83.66;95187.13;5128434;27;20027;-69
2024/01/27 06:56:32;;;;;;;11.85;8.05;;;;;;;1.78;83.95;95174.81;5133884;27;20035;-69
2024/01/27 06:58:58;;;;;;;15.70;8.90;;;;;;;1.70;83.74;95182.00;5125131;27;20382;-69
2024/01/27 07:01:23;;;;;;;12.90;7.13;;;;;;;1.79;83.38;95191.84;5088756;28;20044;-69
2024/01/27 07:03:48;;;;;;;10.95;6.80;;;;;;;1.98;83.01;95181.66;5100148;28;20441;-69
2024/01/27 07:06:14;;;;;;;7.38;4.20;;;;;;;2.19;81.92;95182.41;5127177;28;20027;-68
2024/01/27 07:08:39;;;;;;;4.85;2.90;;;;;;;2.39;80.96;95175.56;5130464;28;20027;-69
2024/01/27 07:11:05;;;;;;;5.22;3.42;;;;;;;2.53;79.73;95165.53;5126524;27;20500;-69
2024/01/27 07:13:30;;;;;;;4.18;2.80;;;;;;;2.76;78.55;95168.75;5111304;27;20092;-69
2024/01/27 07:15:57;;;;;;;3.70;1.80;;;;;;;2.72;77.63;95144.16;5122961;28;20416;-69
2024/01/27 07:18:23;;;;;;;4.57;2.30;;;;;;;3.05;76.41;95163.09;5128322;28;20073;-68
2024/01/27 07:20:49;;;;;;;4.22;2.50;;;;;;;3.06;75.49;95135.69;5128371;28;21989;-69
2024/01/27 07:23:14;;;;;;;3.13;1.88;;;;;;;2.89;74.60;95092.88;5126629;28;20027;-68
2024/01/27 07:25:40;;;;;;;4.88;2.22;;;;;;;3.35;73.08;95147.94;5110197;28;20027;-69
2024/01/27 07:28:05;;;;;;;2.55;1.80;;;;;;;3.47;72.78;95161.91;5128186;27;20516;-69
2024/01/27 07:30:31;;;;;;;7.05;3.20;;;;;;;3.61;71.73;95179.22;5129458;27;20031;-68
2024/01/27 07:32:56;;;;;;;3.13;1.60;;;;;;;3.55;71.45;95174.38;5124338;27;20588;-69
2024/01/27 07:35:22;;;;;;;4.32;1.90;;;;;;;3.83;70.88;95191.00;5109864;28;20047;-69
2024/01/27 07:37:47;;;;;;;4.00;2.00;;;;;;;3.88;70.73;95184.72;5109652;28;20028;-68
2024/01/27 07:40:13;;;;;;;14.75;6.22;;;;;;;3.84;68.77;95238.91;5092836;28;20036;-69
2024/01/27 07:42:38;;;;;;;10.15;5.88;;;;;;;3.72;68.83;95204.38;5120954;28;20541;-68
2024/01/27 07:45:04;;;;;;;12.32;5.65;;;;;;;3.81;67.88;95268.16;5112939;28;20023;-68
2024/01/27 07:47:30;;;;;;;5.95;2.72;;;;;;;3.71;67.36;95251.56;5131362;27;20027;-70
2024/01/27 07:49:55;;;;;;;5.82;2.83;;;;;;;3.67;67.31;95257.72;5131600;27;20084;-69
2024/01/27 07:52:20;;;;;;;7.88;3.85;;;;;;;3.68;67.14;95256.84;5111949;28;20027;-68
2024/01/27 07:54:46;;;;;;;6.30;3.88;;;;;;;3.65;66.90;95256.97;5130059;28;20089;-69
2024/01/27 07:57:12;;;;;;;10.10;5.18;;;;;;;3.68;67.40;95287.69;5130123;28;20024;-69
2024/01/27 07:59:38;;;;;;;10.20;6.32;;;;;;;3.53;67.23;95250.69;5129494;27;20043;-69
2024/01/27 08:02:03;;;;;;;14.85;8.40;;;;;;;3.59;67.51;95247.81;5129970;28;20031;-69
2024/01/27 08:04:28;;;;;;;8.70;5.45;;;;;;;3.51;66.96;95258.47;5112917;28;20043;-69
2024/01/27 08:06:54;;;;;;;9.10;5.28;;;;;;;3.53;67.11;95279.78;5112897;28;20076;-68
2024/01/27 08:09:19;;;;;;;8.43;5.22;;;;;;;3.49;66.62;95268.00;5129965;27;20026;-68
2024/01/27 08:11:45;;;;;;;7.43;3.97;;;;;;;3.57;66.40;95260.75;5133706;27;20492;-69
2024/01/27 08:14:10;;;;;;;7.07;3.95;;;;;;;3.43;66.71;95288.84;5133618;27;20076;-69
2024/01/27 08:16:36;;;;;;;7.18;3.85;;;;;;;3.48;66.20;95256.06;5116589;27;20405;-68
2024/01/27 08:19:01;;;;;;;8.98;5.32;;;;;;;3.55;66.67;95260.00;5095089;28;20024;-69
2024/01/27 08:21:27;;;;;;;7.38;3.90;;;;;;;3.69;65.81;95253.34;5112838;28;20118;-69
2024/01/27 08:23:53;;;;;;;8.57;4.30;;;;;;;3.72;66.21;95259.16;5112903;28;20024;-69
2024/01/27 08:26:20;;;;;;;8.52;3.92;;;;;;;3.74;65.30;95256.53;5096162;28;20482;-68
2024/01/27 08:28:46;;;;;;;6.53;4.40;;;;;;;3.80;65.86;95225.38;5129858;27;20551;-69
2024/01/27 08:31:11;;;;;;;7.13;4.35;;;;;;;3.97;64.18;95248.50;5133562;27;20110;-68
2024/01/27 08:33:37;;;;;;;7.00;4.18;;;;;;;4.29;63.73;95256.34;5133286;27;20031;-68
2024/01/27 08:36:03;;;;;;;8.38;4.93;;;;;;;4.24;62.04;95233.44;5131544;27;20031;-69
2024/01/27 08:38:28;;;;;;;8.75;5.25;;;;;;;4.31;62.03;95225.41;5133463;27;20412;-69
2024/01/27 08:40:54;;;;;;;7.80;4.10;;;;;;;4.28;60.94;95257.25;5132984;27;20031;-68
2024/01/27 08:43:19;;;;;;;9.77;5.15;;;;;;;4.27;60.74;95255.59;5132940;27;20048;-69
2024/01/27 08:45:44;;;;;;;23.45;10.48;;;;;;;4.24;60.93;95225.72;5132275;27;20039;-69
2024/01/27 08:48:11;;;;;;;15.55;8.90;;;;;;;4.30;61.23;95234.84;5134175;27;20026;-69
2024/01/27 08:50:36;;;;;;;19.67;7.50;;;;;;;4.60;61.01;95276.19;5133046;27;20036;-68
2024/01/27 08:53:02;;;;;;;28.65;13.35;;;;;;;4.52;60.71;95259.47;5115673;27;20027;-69
2024/01/27 08:55:27;;;;;;;8.65;4.35;;;;;;;4.43;61.22;95264.19;5110831;28;20031;-69
2024/01/27 08:57:53;;;;;;;29.35;18.08;;;;;;;4.56;61.12;95240.38;5113419;28;20092;-68
2024/01/27 09:00:19;;;;;;;19.45;12.75;;;;;;;4.93;60.70;95227.22;5112300;28;20506;-68
2024/01/27 09:02:44;;;;;;;11.00;5.50;;;;;;;4.89;60.01;95248.88;5112076;28;20495;-69
2024/01/27 09:05:10;;;;;;;15.15;7.45;;;;;;;5.08;60.03;95232.47;5131663;27;20079;-68
2024/01/27 09:07:35;;;;;;;24.83;8.38;;;;;;;4.76;59.31;95221.31;5132671;27;20531;-69
2024/01/27 09:10:01;;;;;;;13.60;5.63;;;;;;;4.91;60.26;95228.22;5115455;27;20126;-69
2024/01/27 09:12:26;;;;;;;33.42;14.75;;;;;;;4.63;59.86;95174.84;5131408;27;20026;-69
2024/01/27 09:14:53;;;;;;;20.70;8.75;;;;;;;4.69;59.55;95251.69;5115219;27;20092;-68
2024/01/27 09:17:19;;;;;;;45.72;16.15;;;;;;;4.32;59.07;95229.63;5115464;27;20023;-69
2024/01/27 09:19:45;;;;;;;12.10;6.82;;;;;;;4.46;59.50;95232.34;5114950;27;20031;-68
2024/01/27 09:22:10;;;;;;;41.38;15.75;;;;;;;4.53;59.86;95261.97;5093762;28;20437;-69
2024/01/27 09:24:35;;;;;;;27.67;11.52;;;;;;;4.57;59.15;95244.59;5094779;28;20073;-68
2024/01/27 09:27:01;;;;;;;30.73;12.52;;;;;;;4.70;59.93;95255.94;5094753;28;20031;-69
2024/01/27 09:29:27;;;;;;;31.38;11.77;;;;;;;4.54;59.97;95247.34;5111535;28;20073;-69
2024/01/27 09:31:52;;;;;;;36.50;14.60;;;;;;;4.35;60.75;95217.44;5109497;27;20039;-68
2024/01/27 09:34:18;;;;;;;11.73;6.07;;;;;;;4.26;60.66;95248.78;5131966;27;20031;-69
2024/01/27 09:36:43;;;;;;;27.88;10.75;;;;;;;3.99;60.96;95240.72;5133275;27;20027;-69
2024/01/27 09:39:09;;;;;;;30.00;14.20;;;;;;;4.20;61.47;95254.22;5130574;27;20031;-68
2024/01/27 09:41:34;;;;;;;22.85;12.02;;;;;;;4.30;61.23;95270.88;5128442;27;20040;-68
2024/01/27 09:44:01;;;;;;;50.45;23.17;;;;;;;4.23;61.63;95244.63;5111371;28;20023;-68
2024/01/27 09:46:26;;;;;;;16.10;10.13;;;;;;;4.29;61.90;95265.78;5094425;28;20047;-69
2024/01/27 09:48:53;;;;;;;16.35;9.48;;;;;;;4.33;61.45;95254.44;5099135;27;20236;-69
2024/01/27 09:51:19;;;;;;;15.57;9.52;;;;;;;4.40;61.56;95261.78;5131994;27;20077;-69
2024/01/27 09:53:45;;;;;;;10.88;6.30;;;;;;;4.35;60.88;95250.88;5097560;27;20051;-68
2024/01/27 09:56:10;;;;;;;11.63;5.20;;;;;;;4.56;60.65;95271.25;5131787;27;20054;-68
2024/01/27 09:58:36;;;;;;;10.63;5.55;;;;;;;4.29;61.48;95268.34;5130323;27;20034;-69
2024/01/27 10:01:02;;;;;;;16.63;8.15;;;;;;;4.40;61.55;95264.34;5114561;27;20488;-69
2024/01/27 10:03:28;;;;;;;8.27;5.00;;;;;;;4.40;60.51;95251.50;5114316;27;20050;-69
2024/01/27 10:05:54;;;;;;;8.15;4.75;;;;;;;4.43;60.81;95258.19;5114352;27;20039;-69
2024/01/27 10:08:23;;;;;;;7.90;4.53;;;;;;;4.33;61.53;95273.28;5078679;28;20028;-68
2024/01/27 10:10:52;;;;;;;6.07;3.55;;;;;;;4.22;61.26;95275.56;5092665;28;20027;-69
2024/01/27 10:13:17;;;;;;;6.80;3.10;;;;;;;4.21;62.07;95289.34;5092298;28;20031;-68
2024/01/27 10:15:43;;;;;;;4.50;3.40;;;;;;;4.25;61.96;95278.81;5110809;28;20038;-69
2024/01/27 10:18:12;;;;;;;6.90;4.18;;;;;;;4.13;62.37;95278.59;5111963;28;20088;-69
2024/01/27 10:20:41;;;;;;;7.40;3.58;;;;;;;4.16;62.59;95284.41;5094276;28;20038;-69
2024/01/27 10:23:11;;;;;;;6.18;4.28;;;;;;;4.20;62.83;95249.91;5094063;28;20485;-69
2024/01/27 10:25:40;;;;;;;5.82;4.22;;;;;;;4.36;61.90;95269.72;5110785;28;20036;-68
2024/01/27 10:28:08;;;;;;;4.90;3.67;;;;;;;4.45;61.83;95257.19;5110524;28;20028;-69
2024/01/27 10:30:34;;;;;;;4.78;3.42;;;;;;;4.67;61.21;95279.25;5110587;28;20118;-68
2024/01/27 10:32:59;;;;;;;4.32;3.22;;;;;;;4.75;61.18;95260.84;5110839;28;20032;-68
2024/01/27 10:35:25;;;;;;;3.55;2.90;;;;;;;4.87;60.72;95276.44;5111209;28;20031;-68
2024/01/27 10:37:54;;;;;;;4.93;4.03;;;;;;;4.64;60.47;95253.69;5110354;28;20030;-68
2024/01/27 10:40:20;;;;;;;8.02;4.40;;;;;;;4.88;60.82;95293.59;5093322;28;20032;-68
2024/01/27 10:42:45;;;;;;;7.20;4.60;;;;;;;4.76;60.99;95281.34;5110313;28;20470;-69
2024/01/27 10:45:11;;;;;;;8.05;4.25;;;;;;;4.68;60.92;95299.78;5093380;28;20034;-69
2024/01/27 10:47:36;;;;;;;5.00;3.95;;;;;;;4.39;61.23;95279.84;5110215;28;20077;-70
2024/01/27 10:50:02;;;;;;;6.80;4.18;;;;;;;4.56;61.73;95297.00;5093218;28;20051;-69
2024/01/27 10:52:32;;;;;;;9.32;4.35;;;;;;;4.68;61.55;95291.19;5110143;28;20028;-69
2024/01/27 10:55:00;;;;;;;11.98;6.40;;;;;;;4.64;61.25;95282.00;5109971;28;20409;-69
2024/01/27 10:57:25;;;;;;;16.33;9.52;;;;;;;4.68;60.94;95289.47;5110389;28;20497;-69
2024/01/27 10:59:51;;;;;;;6.40;4.13;;;;;;;4.71;60.97;95293.66;5110023;28;20031;-69
2024/01/27 11:02:17;;;;;;;5.07;3.60;;;;;;;4.58;61.11;95313.19;5110132;28;20054;-69
2024/01/27 11:04:42;;;;;;;4.65;3.00;;;;;;;4.51;60.81;95312.66;5110001;28;20515;-69
2024/01/27 11:07:08;;;;;;;5.75;3.92;;;;;;;4.67;60.62;95285.22;5093108;28;20032;-69
2024/01/27 11:09:33;;;;;;;10.60;5.93;;;;;;;4.89;60.11;95310.69;5092917;28;20015;-69
2024/01/27 11:11:59;;;;;;;3.17;2.50;;;;;;;4.71;60.25;95329.69;5093005;28;20035;-69
2024/01/27 11:14:24;;;;;;;4.75;3.38;;;;;;;4.71;60.70;95324.53;5109808;28;20050;-68
2024/01/27 11:16:55;;;;;;;6.15;3.22;;;;;;;4.73;61.52;95342.44;5092890;28;20509;-69
2024/01/27 11:19:21;;;;;;;3.40;2.75;;;;;;;4.54;61.40;95345.97;5092830;28;20023;-68
2024/01/27 11:21:48;;;;;;;5.63;3.20;;;;;;;4.51;61.91;95350.44;5109804;28;20486;-70
2024/01/27 11:24:14;;;;;;;5.13;3.30;;;;;;;4.48;61.59;95341.97;5092987;28;20027;-69
2024/01/27 11:26:40;;;;;;;4.43;2.95;;;;;;;4.42;61.21;95339.69;5110074;28;20034;-69